Time;durP1;ratioP1;P1;durP2;ratioP2;P2;SDS_P1;SDS_P2;PMS_P1;PMS_P2;Temp;Humidity;BMP_temperature;BMP_pressure;BME280_temperature;BME280_humidity;BME280_pressure;Samples;Min_cycle;Max_cycle;Signal;HPM_P1;HPM_P2
2022/05/20 00:01:08;;;;;;;28.80;25.77;;;;;;;19.27;80.59;100843.28;5072049;28;20056;-57
2022/05/20 00:03:37;;;;;;;27.67;24.52;;;;;;;19.24;80.78;100830.72;5072439;28;20049;-52
2022/05/20 00:06:04;;;;;;;31.40;25.65;;;;;;;19.21;80.51;100830.63;5072100;28;20056;-50
2022/05/20 00:08:35;;;;;;;28.92;25.88;;;;;;;19.18;80.93;100839.84;5072242;28;20048;-52
2022/05/20 00:11:03;;;;;;;29.00;25.95;;;;;;;19.15;80.49;100846.19;5071978;28;20053;-51
2022/05/20 00:13:30;;;;;;;28.52;25.25;;;;;;;19.13;81.68;100846.59;5072175;28;20378;-51
2022/05/20 00:15:59;;;;;;;31.70;28.48;;;;;;;19.13;81.01;100849.41;5072038;28;20057;-55
2022/05/20 00:18:29;;;;;;;30.55;26.67;;;;;;;19.10;81.47;100850.13;5072163;28;20400;-54
2022/05/20 00:20:59;;;;;;;31.58;28.33;;;;;;;19.09;81.31;100844.84;5071641;28;20049;-54
2022/05/20 00:23:26;;;;;;;32.80;28.17;;;;;;;19.08;81.70;100841.19;5071535;28;20055;-57
2022/05/20 00:25:54;;;;;;;33.83;28.67;;;;;;;19.05;81.84;100847.59;5072006;28;20390;-54
2022/05/20 00:28:24;;;;;;;32.50;28.77;;;;;;;19.05;82.18;100847.59;5071763;28;20048;-55
2022/05/20 00:30:54;;;;;;;37.65;32.78;;;;;;;19.05;81.68;100854.03;5072040;28;20417;-57
2022/05/20 00:33:28;;;;;;;38.67;34.63;;;;;;;19.00;81.00;100850.66;5071939;28;20052;-55
2022/05/20 00:35:56;;;;;;;35.80;32.13;;;;;;;18.97;81.54;100851.41;5071391;28;20059;-51
2022/05/20 00:38:23;;;;;;;40.25;35.92;;;;;;;18.91;80.96;100850.84;5072020;28;20049;-51
2022/05/20 00:40:53;;;;;;;39.60;35.00;;;;;;;18.92;80.93;100858.13;5071737;28;20433;-56
2022/05/20 00:43:29;;;;;;;34.92;31.05;;;;;;;18.90;79.36;100852.03;5071816;28;20059;-52
2022/05/20 00:45:59;;;;;;;36.03;31.90;;;;;;;18.86;78.88;100851.94;5071789;28;20056;-51
2022/05/20 00:48:29;;;;;;;35.78;32.05;;;;;;;18.83;78.75;100852.63;5071856;28;20119;-50
2022/05/20 00:51:00;;;;;;;37.80;33.90;;;;;;;18.78;79.17;100852.06;5071794;28;20056;-51
2022/05/20 00:53:33;;;;;;;36.72;32.72;;;;;;;18.77;80.08;100861.69;5071406;28;20057;-54
2022/05/20 00:56:02;;;;;;;34.40;30.80;;;;;;;18.75;79.08;100862.09;5071283;28;20052;-54
2022/05/20 00:58:29;;;;;;;;;;;;;;;18.73;80.30;100855.97;5071962;28;20053;-51
2022/05/20 01:00:57;;;;;;;33.20;29.45;;;;;;;18.70;78.86;100862.31;5071436;28;19920;-55
2022/05/20 01:03:26;;;;;;;33.33;28.45;;;;;;;18.67;78.76;100854.59;5071506;28;20052;-55
2022/05/20 01:05:56;;;;;;;32.95;28.33;;;;;;;18.66;78.91;100856.56;5071558;28;20123;-52
2022/05/20 01:08:26;;;;;;;35.42;29.85;;;;;;;18.68;79.60;100847.75;5071638;28;20049;-51
2022/05/20 01:10:54;;;;;;;34.55;29.95;;;;;;;18.70;79.39;100847.41;5071718;28;20072;-51
2022/05/20 01:13:25;;;;;;;37.72;30.42;;;;;;;18.70;79.84;100845.41;5071556;28;20068;-52
2022/05/20 01:15:53;;;;;;;33.38;29.63;;;;;;;18.66;79.11;100848.09;5071075;28;20060;-56
2022/05/20 01:18:21;;;;;;;33.80;30.17;;;;;;;18.65;80.08;100849.31;5071550;28;20492;-54
2022/05/20 01:20:52;;;;;;;37.25;30.42;;;;;;;18.68;81.27;100847.75;5071276;28;20504;-55
2022/05/20 01:23:23;;;;;;;34.97;31.23;;;;;;;18.65;80.24;100843.66;5071196;28;20049;-55
2022/05/20 01:25:52;;;;;;;34.00;29.58;;;;;;;18.63;79.52;100853.69;5071338;28;20496;-52
2022/05/20 01:28:22;;;;;;;32.13;28.77;;;;;;;18.61;78.21;100854.03;5071499;28;20375;-57
2022/05/20 01:30:52;;;;;;;30.00;26.67;;;;;;;18.60;77.49;100845.91;5073336;28;20059;-52
2022/05/20 01:33:24;;;;;;;32.17;27.40;;;;;;;18.56;77.33;100848.66;5075174;28;20048;-51
2022/05/20 01:35:51;;;;;;;29.63;26.40;;;;;;;18.57;77.78;100861.56;5075165;28;20060;-53
2022/05/20 01:38:21;;;;;;;31.58;26.92;;;;;;;18.53;77.85;100849.34;5075182;28;20060;-52
2022/05/20 01:40:50;;;;;;;31.85;28.10;;;;;;;18.52;77.84;100842.09;5074942;28;20052;-51
2022/05/20 01:43:34;;;;;;;29.20;26.08;;;;;;;18.52;77.90;100835.59;5075041;28;20072;-55
2022/05/20 01:46:13;;;;;;;30.80;27.52;;;;;;;18.50;77.98;100843.59;5074410;28;20056;-51
2022/05/20 01:48:49;;;;;;;31.58;27.25;;;;;;;18.51;77.18;100846.06;5074159;28;20401;-55
2022/05/20 01:51:22;;;;;;;31.77;26.55;;;;;;;18.53;78.81;100843.72;5074730;28;20056;-54
2022/05/20 01:53:58;;;;;;;35.45;29.02;;;;;;;18.53;77.87;100838.06;5074605;28;20052;-55
2022/05/20 01:56:30;;;;;;;31.13;26.92;;;;;;;18.54;78.00;100845.38;5074042;28;20048;-56
2022/05/20 01:59:03;;;;;;;30.42;25.67;;;;;;;18.51;77.71;100834.78;5074879;28;20055;-51
2022/05/20 02:01:37;;;;;;;32.05;28.55;;;;;;;18.53;78.64;100838.06;5074259;28;20075;-56
2022/05/20 02:04:10;;;;;;;32.08;27.05;;;;;;;18.51;78.57;100829.16;5074423;28;20056;-53
2022/05/20 02:06:41;;;;;;;31.88;27.90;;;;;;;18.51;78.83;100833.97;5074294;28;20059;-51
2022/05/20 02:09:16;;;;;;;30.75;27.08;;;;;;;18.49;79.38;100828.69;5074274;28;20044;-51
2022/05/20 02:11:49;;;;;;;31.98;28.52;;;;;;;18.48;78.16;100829.88;5074602;28;20053;-53
2022/05/20 02:14:22;;;;;;;33.30;27.98;;;;;;;18.48;77.46;100834.69;5074486;28;20435;-51
2022/05/20 02:16:55;;;;;;;32.42;27.73;;;;;;;18.44;77.77;100829.78;5074387;28;20045;-52
2022/05/20 02:19:34;;;;;;;31.60;28.25;;;;;;;18.45;77.53;100827.75;5074050;28;20048;-51
2022/05/20 02:22:06;;;;;;;31.75;27.33;;;;;;;18.48;77.02;100823.41;5074191;28;20059;-54
2022/05/20 02:24:36;;;;;;;33.25;27.98;;;;;;;18.47;77.35;100825.41;5073940;28;20055;-51
2022/05/20 02:27:07;;;;;;;34.10;29.88;;;;;;;18.48;77.59;100820.56;5074358;28;20052;-51
2022/05/20 02:29:39;;;;;;;34.33;28.75;;;;;;;18.49;78.09;100811.75;5073706;28;20059;-53
2022/05/20 02:32:12;;;;;;;34.45;29.08;;;;;;;18.46;77.58;100816.13;5074200;28;20060;-54
2022/05/20 02:34:39;;;;;;;32.40;28.25;;;;;;;18.42;77.84;100808.75;5073368;28;20041;-51
2022/05/20 02:37:23;;;;;;;33.72;27.73;;;;;;;18.40;78.63;100814.75;5074111;28;20064;-52
2022/05/20 02:39:53;;;;;;;37.22;29.35;;;;;;;18.36;78.79;100813.81;5073913;28;20049;-53
2022/05/20 02:42:21;;;;;;;32.70;27.35;;;;;;;18.37;79.44;100812.66;5074234;28;20049;-55
2022/05/20 02:44:49;;;;;;;31.95;28.55;;;;;;;18.35;79.11;100812.19;5073673;28;20057;-54
2022/05/20 02:47:17;;;;;;;32.30;28.90;;;;;;;18.33;78.63;100817.38;5074058;28;20075;-55
2022/05/20 02:49:45;;;;;;;34.22;29.05;;;;;;;18.32;78.80;100809.25;5073365;28;20489;-55
2022/05/20 02:52:12;;;;;;;32.20;28.48;;;;;;;18.21;78.56;100811.78;5073808;28;20072;-55
2022/05/20 02:54:39;;;;;;;37.47;29.92;;;;;;;18.21;79.18;100809.78;5072841;28;20048;-55
2022/05/20 02:57:08;;;;;;;33.38;29.70;;;;;;;18.12;79.26;100811.94;5073328;28;20405;-54
2022/05/20 03:05:13;;;;;;;39.22;30.15;;;;;;;18.12;80.41;100806.28;5073343;28;20057;-57
2022/05/20 03:07:40;;;;;;;39.53;31.65;;;;;;;18.12;79.86;100805.44;5073128;28;20508;-53
2022/05/20 03:10:08;;;;;;;33.22;29.63;;;;;;;18.11;79.25;100815.09;5072979;28;20151;-53
2022/05/20 03:12:38;;;;;;;37.40;28.80;;;;;;;18.15;81.07;100813.22;5073131;28;20048;-51
2022/05/20 03:15:08;;;;;;;34.50;29.60;;;;;;;18.11;80.55;100813.09;5072537;28;20060;-54
2022/05/20 03:17:36;;;;;;;34.05;28.58;;;;;;;18.11;80.90;100809.47;5072838;28;20056;-56
2022/05/20 03:20:04;;;;;;;34.47;28.35;;;;;;;18.10;81.12;100814.28;5072450;28;20056;-56
2022/05/20 03:22:33;;;;;;;32.17;27.33;;;;;;;18.13;81.35;100813.56;5071954;28;20501;-56
2022/05/20 03:25:01;;;;;;;38.22;29.85;;;;;;;18.15;81.45;100814.03;5072952;28;20052;-54
2022/05/20 03:27:28;;;;;;;34.45;30.65;;;;;;;18.13;80.67;100812.75;5072932;28;20060;-57
2022/05/20 03:29:57;;;;;;;35.88;30.52;;;;;;;18.06;80.30;100813.34;5072344;28;20048;-51
2022/05/20 03:32:25;;;;;;;39.03;29.40;;;;;;;18.07;80.89;100802.91;5072593;28;20498;-54
2022/05/20 03:34:52;;;;;;;37.70;30.23;;;;;;;18.09;80.80;100806.19;5072702;28;20048;-57
2022/05/20 03:37:19;;;;;;;40.13;30.77;;;;;;;18.05;81.10;100804.06;5072738;28;20048;-56
2022/05/20 03:39:46;;;;;;;37.17;32.00;;;;;;;18.02;79.85;100807.59;5072379;28;20040;-57
2022/05/20 03:42:14;;;;;;;39.22;33.03;;;;;;;18.04;79.95;100808.06;5072328;28;20049;-58
2022/05/20 03:44:41;;;;;;;36.42;31.33;;;;;;;18.01;80.42;100805.94;5072340;28;20378;-54
2022/05/20 03:47:10;;;;;;;35.88;31.55;;;;;;;18.06;79.89;100802.09;5072728;28;20048;-56
2022/05/20 03:49:37;;;;;;;44.33;33.45;;;;;;;18.09;80.77;100807.00;5071898;28;20048;-51
2022/05/20 03:52:05;;;;;;;36.55;30.00;;;;;;;18.13;80.66;100810.75;5072415;28;20409;-52
2022/05/20 03:54:33;;;;;;;39.80;32.20;;;;;;;18.16;80.50;100804.38;5071669;28;20052;-57
2022/05/20 03:57:02;;;;;;;36.28;32.05;;;;;;;18.18;80.44;100804.84;5072043;28;20049;-54
2022/05/20 03:59:29;;;;;;;38.08;31.90;;;;;;;18.21;80.29;100803.31;5072004;28;20055;-56
2022/05/20 04:01:59;;;;;;;34.00;30.30;;;;;;;18.25;80.21;100795.78;5072251;28;20067;-54
2022/05/20 04:04:32;;;;;;;35.80;29.65;;;;;;;18.31;80.40;100791.53;5071820;28;20052;-57
2022/05/20 04:06:59;;;;;;;38.33;31.58;;;;;;;18.33;80.27;100793.97;5072380;28;20052;-58
2022/05/20 04:09:27;;;;;;;38.97;30.52;;;;;;;18.36;80.45;100796.09;5071918;28;20048;-55
2022/05/20 04:11:57;;;;;;;37.88;30.27;;;;;;;18.39;80.59;100798.19;5072331;28;20060;-54
2022/05/20 04:14:26;;;;;;;39.75;31.50;;;;;;;18.40;80.54;100795.00;5071713;28;20063;-55
2022/05/20 04:16:57;;;;;;;36.67;30.83;;;;;;;18.41;80.30;100790.19;5072143;28;20064;-55
2022/05/20 04:19:25;;;;;;;35.63;31.02;;;;;;;18.44;79.20;100793.09;5072161;28;20401;-55
2022/05/20 04:21:57;;;;;;;38.85;31.00;;;;;;;18.49;79.85;100791.22;5072016;28;20397;-55
2022/05/20 04:24:25;;;;;;;34.10;29.80;;;;;;;18.51;78.91;100800.13;5071777;28;20060;-52
2022/05/20 04:26:52;;;;;;;34.97;29.25;;;;;;;18.51;78.84;100808.59;5071907;28;20052;-56
2022/05/20 04:29:20;;;;;;;36.30;30.73;;;;;;;18.51;78.70;100798.13;5071820;28;20053;-57
2022/05/20 04:31:50;;;;;;;31.75;28.30;;;;;;;18.49;78.74;100797.66;5071715;28;20064;-55
2022/05/20 04:34:18;;;;;;;37.05;31.83;;;;;;;18.49;78.70;100813.78;5072289;28;20067;-54
2022/05/20 04:36:46;;;;;;;36.53;30.15;;;;;;;18.48;79.12;100804.50;5071734;28;20049;-55
2022/05/20 04:39:15;;;;;;;35.95;32.08;;;;;;;18.49;78.42;100806.13;5071809;28;20053;-56
2022/05/20 04:47:19;;;;;;;36.50;29.77;;;;;;;18.43;78.94;100828.13;5076454;28;20477;-58
2022/05/20 04:49:47;;;;;;;37.15;32.05;;;;;;;18.42;78.68;100825.69;5071489;28;20417;-57
2022/05/20 04:52:15;;;;;;;45.72;36.30;;;;;;;18.41;76.90;100833.28;5071683;28;20057;-57
2022/05/20 04:54:53;;;;;;;36.53;31.60;;;;;;;18.45;77.28;100830.59;5071533;28;20060;-54
2022/05/20 04:57:23;;;;;;;38.13;32.78;;;;;;;18.51;77.06;100817.88;5072022;28;20052;-55
2022/05/20 04:59:52;;;;;;;35.95;31.25;;;;;;;18.57;78.02;100821.25;5071543;28;20049;-57
2022/05/20 05:02:20;;;;;;;36.95;32.88;;;;;;;18.62;77.98;100823.81;5071719;28;20064;-56
2022/05/20 05:04:47;;;;;;;35.03;30.95;;;;;;;18.60;75.89;100828.97;5072109;28;20127;-52
2022/05/20 05:07:15;;;;;;;39.92;31.05;;;;;;;18.70;76.98;100819.19;5075291;28;20052;-57
2022/05/20 05:09:45;;;;;;;36.55;30.33;;;;;;;18.79;76.87;100817.88;5074897;28;20056;-57
2022/05/20 05:12:14;;;;;;;37.25;30.75;;;;;;;18.87;77.70;100818.88;5075764;28;20052;-55
2022/05/20 05:14:44;;;;;;;36.47;31.67;;;;;;;18.93;76.61;100811.78;5075362;28;20052;-56
2022/05/20 05:17:13;;;;;;;37.95;30.08;;;;;;;18.96;77.23;100810.22;5075318;28;20059;-57
2022/05/20 05:19:44;;;;;;;31.70;28.33;;;;;;;19.02;75.58;100809.63;5074941;28;20408;-56
2022/05/20 05:22:13;;;;;;;32.83;29.33;;;;;;;19.12;76.30;100796.13;5074734;28;20139;-55
2022/05/20 05:24:41;;;;;;;33.73;27.93;;;;;;;19.23;75.68;100795.22;5074583;28;20048;-55
2022/05/20 05:27:10;;;;;;;28.98;25.83;;;;;;;19.29;74.91;100790.09;5075208;28;20478;-53
2022/05/20 05:29:39;;;;;;;30.15;26.45;;;;;;;19.38;75.66;100793.56;5074855;28;20064;-52
2022/05/20 05:32:07;;;;;;;30.40;25.42;;;;;;;19.43;75.63;100787.59;5074703;28;20048;-52
2022/05/20 05:34:35;;;;;;;28.00;25.00;;;;;;;19.54;75.19;100781.41;5074590;28;20048;-57
2022/05/20 05:37:03;;;;;;;28.67;25.27;;;;;;;19.63;75.22;100776.34;5074966;28;20056;-56
2022/05/20 05:39:31;;;;;;;28.92;25.42;;;;;;;19.76;72.85;100777.06;5074740;28;20405;-58
2022/05/20 05:42:00;;;;;;;26.65;23.88;;;;;;;19.87;73.37;100776.13;5074572;28;20059;-54
2022/05/20 05:44:29;;;;;;;27.05;23.55;;;;;;;19.99;72.68;100783.66;5074670;28;20066;-57
2022/05/20 05:46:56;;;;;;;24.92;22.48;;;;;;;20.04;71.81;100786.19;5074647;28;20441;-55
2022/05/20 05:49:24;;;;;;;25.13;22.40;;;;;;;20.07;72.11;100785.44;5074710;28;20061;-55
2022/05/20 05:51:52;;;;;;;20.55;18.38;;;;;;;20.19;70.41;100781.63;5074622;28;20049;-56
2022/05/20 05:54:20;;;;;;;17.85;15.40;;;;;;;20.39;67.27;100781.63;5074790;28;20515;-55
2022/05/20 05:56:47;;;;;;;19.02;16.23;;;;;;;20.59;68.54;100777.59;5074273;28;20059;-58
2022/05/20 05:59:15;;;;;;;18.77;16.77;;;;;;;20.68;67.63;100785.84;5074221;28;20044;-54
2022/05/20 06:01:44;;;;;;;19.17;16.98;;;;;;;20.67;67.52;100782.19;5073932;28;20068;-56
2022/05/20 06:04:11;;;;;;;18.70;16.77;;;;;;;20.72;67.36;100775.41;5074759;28;20057;-58
2022/05/20 06:06:39;;;;;;;16.73;14.32;;;;;;;20.71;66.80;100767.31;5074302;28;20052;-54
2022/05/20 06:09:08;;;;;;;15.10;12.40;;;;;;;20.74;66.00;100763.72;5074469;28;20045;-57
2022/05/20 06:11:35;;;;;;;;;;;;;;;20.62;62.68;100748.56;5074782;28;20422;-58
2022/05/20 06:14:03;;;;;;;11.80;9.27;;;;;;;20.68;63.37;100746.22;5074539;28;20388;-57
2022/05/20 06:16:31;;;;;;;10.00;8.90;;;;;;;20.78;62.44;100744.78;5073485;28;20059;-57
2022/05/20 06:18:59;;;;;;;9.95;8.98;;;;;;;20.88;63.16;100744.97;5074132;28;20102;-56
2022/05/20 06:21:27;;;;;;;10.35;8.18;;;;;;;20.87;61.19;100749.00;5073724;28;20381;-56
2022/05/20 06:23:54;;;;;;;11.18;7.45;;;;;;;20.65;60.91;100744.16;5073639;28;20083;-52
2022/05/20 06:26:21;;;;;;;8.75;6.85;;;;;;;20.72;60.13;100738.59;5073579;28;20056;-54
2022/05/20 06:28:49;;;;;;;7.88;6.32;;;;;;;20.67;59.37;100739.75;5073958;28;20052;-57
2022/05/20 06:31:16;;;;;;;8.10;6.75;;;;;;;20.66;59.86;100738.13;5073819;28;20055;-56
2022/05/20 06:33:44;;;;;;;10.38;7.68;;;;;;;20.78;59.12;100736.28;5053629;28;20053;-56
2022/05/20 06:41:42;;;;;;;9.98;8.27;;;;;;;21.13;59.23;100730.41;5079417;28;20064;-56
2022/05/20 06:44:09;;;;;;;12.77;9.02;;;;;;;21.18;59.90;100735.72;5073828;28;20048;-55
2022/05/20 06:46:39;;;;;;;11.40;9.43;;;;;;;21.27;58.26;100743.97;5073325;28;20052;-58
2022/05/20 06:49:07;;;;;;;11.18;8.35;;;;;;;21.31;59.72;100733.50;5073586;28;20064;-58
2022/05/20 06:51:38;;;;;;;9.48;8.57;;;;;;;21.44;60.38;100732.13;5073544;28;20382;-54
2022/05/20 06:54:07;;;;;;;13.30;10.30;;;;;;;21.34;59.23;100743.28;5073318;28;20053;-54
2022/05/20 06:56:34;;;;;;;;;;;;;;;21.44;61.22;100737.78;5073680;28;20412;-53
2022/05/20 06:59:03;;;;;;;13.40;10.55;;;;;;;21.54;59.58;100726.97;5073527;28;19924;-55
2022/05/20 07:01:31;;;;;;;13.25;11.85;;;;;;;21.71;59.36;100717.09;5073156;28;20044;-56
2022/05/20 07:04:02;;;;;;;14.65;13.13;;;;;;;21.46;59.15;100720.38;5073109;28;20056;-57
2022/05/20 07:06:30;;;;;;;17.45;15.23;;;;;;;21.21;58.93;100715.16;5073142;28;20063;-57
2022/05/20 07:08:59;;;;;;;16.50;12.60;;;;;;;21.44;59.47;100715.13;5073067;28;20385;-58
2022/05/20 07:11:27;;;;;;;13.23;10.48;;;;;;;21.63;59.38;100707.69;5073092;28;20044;-56
2022/05/20 07:13:57;;;;;;;12.02;10.65;;;;;;;21.67;58.88;100705.69;5073180;28;20060;-55
2022/05/20 07:16:25;;;;;;;10.80;9.68;;;;;;;21.81;57.83;100702.25;5072869;28;20048;-55
2022/05/20 07:18:52;;;;;;;12.07;9.90;;;;;;;21.83;57.83;100708.34;5072471;28;20056;-58
2022/05/20 07:21:20;;;;;;;14.30;10.02;;;;;;;21.95;58.13;100704.44;5072764;28;20060;-58
2022/05/20 07:23:48;;;;;;;9.10;7.40;;;;;;;22.16;57.79;100707.53;5072635;28;20421;-56
2022/05/20 07:26:18;;;;;;;11.35;8.25;;;;;;;22.38;56.58;100713.47;5072867;28;20056;-57
2022/05/20 07:28:46;;;;;;;10.32;9.23;;;;;;;22.16;56.57;100701.84;5072024;28;20079;-58
2022/05/20 07:31:14;;;;;;;11.60;8.00;;;;;;;22.39;57.17;100700.91;5072526;28;20055;-57
2022/05/20 07:33:43;;;;;;;12.85;8.65;;;;;;;22.58;55.65;100705.56;5072879;28;20056;-58
2022/05/20 07:36:10;;;;;;;12.45;9.52;;;;;;;22.99;54.56;100711.97;5072161;28;20052;-59
2022/05/20 07:38:37;;;;;;;12.45;8.98;;;;;;;23.65;52.92;100699.88;5072926;28;20075;-59
2022/05/20 07:41:05;;;;;;;10.77;8.68;;;;;;;24.26;51.13;100697.28;5072910;28;20055;-59
2022/05/20 07:43:35;;;;;;;9.43;8.35;;;;;;;24.99;48.19;100688.41;5072827;28;20052;-57
2022/05/20 07:46:03;;;;;;;10.93;8.13;;;;;;;25.61;47.32;100692.78;5072364;28;20071;-58
2022/05/20 07:48:31;;;;;;;9.73;7.50;;;;;;;26.39;48.05;100685.06;5072691;28;20052;-58
2022/05/20 07:51:01;;;;;;;11.23;8.38;;;;;;;27.25;45.97;100675.81;5072319;28;20415;-59
2022/05/20 07:53:35;;;;;;;13.13;9.10;;;;;;;27.92;44.56;100667.69;5073061;28;20057;-58
2022/05/20 07:56:07;;;;;;;11.98;9.65;;;;;;;28.87;42.26;100662.19;5072227;28;20048;-59
2022/05/20 07:58:39;;;;;;;12.18;10.35;;;;;;;29.77;40.85;100664.19;5072731;28;20049;-59
2022/05/20 08:01:07;;;;;;;11.57;10.13;;;;;;;30.79;39.01;100649.13;5072018;28;20079;-59
2022/05/20 08:06:23;;;;;;;12.63;11.32;;;;;;;32.28;35.81;100637.47;5078230;28;20433;-59
2022/05/20 08:08:53;;;;;;;13.30;11.55;;;;;;;33.26;34.17;100623.44;5072224;28;20394;-59
2022/05/20 08:11:20;;;;;;;14.52;12.50;;;;;;;33.74;32.96;100612.59;5072516;28;20049;-59
2022/05/20 08:13:50;;;;;;;13.93;12.55;;;;;;;34.51;31.86;100609.88;5072612;28;20048;-58
2022/05/20 08:16:18;;;;;;;14.00;12.65;;;;;;;35.15;30.54;100605.50;5071955;28;20056;-59
2022/05/20 08:18:45;;;;;;;15.95;14.35;;;;;;;35.75;29.52;100598.22;5072399;28;20059;-59
2022/05/20 08:21:13;;;;;;;15.30;13.88;;;;;;;36.31;28.37;100602.56;5072207;28;20057;-59
2022/05/20 08:23:40;;;;;;;15.98;14.40;;;;;;;37.12;27.98;100598.81;5071659;28;20048;-55
2022/05/20 08:26:07;;;;;;;16.37;14.80;;;;;;;37.35;26.63;100593.44;5071687;28;20060;-57
2022/05/20 08:28:35;;;;;;;14.87;13.47;;;;;;;37.63;26.58;100585.25;5072304;28;20473;-60
2022/05/20 08:31:04;;;;;;;16.83;15.20;;;;;;;37.40;27.42;100589.03;5071549;28;20060;-57
2022/05/20 08:33:32;;;;;;;14.57;13.18;;;;;;;37.03;27.12;100590.16;5071836;28;20995;-57
2022/05/20 08:35:59;;;;;;;15.85;14.25;;;;;;;36.31;27.90;100579.34;5070904;28;20394;-57
2022/05/20 08:38:26;;;;;;;17.03;15.33;;;;;;;36.17;27.80;100583.75;5072172;28;20052;-57
2022/05/20 08:40:54;;;;;;;15.90;14.27;;;;;;;35.94;28.50;100587.38;5075789;28;20441;-58
2022/05/20 08:43:26;;;;;;;15.25;13.80;;;;;;;35.35;29.30;100587.66;5076231;28;20052;-60
2022/05/20 08:45:53;;;;;;;17.20;14.45;;;;;;;34.68;29.50;100586.50;5075657;28;20152;-56
2022/05/20 08:48:22;;;;;;;14.33;12.83;;;;;;;34.61;31.06;100593.38;5076400;28;20052;-60
2022/05/20 08:50:51;;;;;;;16.63;14.88;;;;;;;34.88;29.62;100586.00;5075760;28;20056;-60
2022/05/20 08:53:23;;;;;;;15.70;14.10;;;;;;;35.12;30.07;100575.41;5076025;28;20477;-57
2022/05/20 08:55:50;;;;;;;16.35;14.35;;;;;;;34.62;29.99;100571.03;5075028;28;20059;-58
2022/05/20 08:58:21;;;;;;;16.80;14.97;;;;;;;33.29;32.32;100576.31;5075927;28;20053;-60
2022/05/20 09:00:48;;;;;;;17.55;15.85;;;;;;;32.83;33.64;100585.38;5075581;28;20059;-60
2022/05/20 09:03:16;;;;;;;16.87;15.27;;;;;;;32.33;33.95;100579.22;5075658;28;20365;-59
2022/05/20 09:05:46;;;;;;;21.47;17.73;;;;;;;31.19;35.73;100588.47;5075119;28;20053;-59
2022/05/20 09:08:25;;;;;;;17.45;15.50;;;;;;;30.80;37.00;100579.63;5075687;28;20053;-60
2022/05/20 09:10:55;;;;;;;19.48;16.38;;;;;;;30.35;37.70;100584.06;5074907;28;20052;-60
2022/05/20 09:15:43;;;;;;;18.17;16.27;;;;;;;30.13;38.33;100575.16;5075538;28;20060;-56
2022/05/20 09:16:15;;;;;;;19.30;17.40;;;;;;;29.79;39.57;100577.59;5075073;28;20048;-60
2022/05/20 09:18:45;;;;;;;20.02;17.90;;;;;;;29.54;40.10;100573.19;5075585;28;20063;-60
2022/05/20 09:21:27;;;;;;;17.05;15.32;;;;;;;29.29;40.41;100577.41;5075317;28;20056;-59
2022/05/20 09:23:56;;;;;;;17.65;15.85;;;;;;;29.10;41.10;100576.13;5074872;28;20056;-60
2022/05/20 09:26:26;;;;;;;18.23;15.98;;;;;;;29.00;42.08;100565.69;5075010;28;20068;-59
2022/05/20 09:28:59;;;;;;;19.42;17.45;;;;;;;28.99;41.82;100543.97;5074812;28;20057;-56
2022/05/20 09:31:37;;;;;;;17.70;15.00;;;;;;;29.05;41.72;100539.34;5074729;28;20508;-59
2022/05/20 09:34:15;;;;;;;18.48;16.42;;;;;;;28.59;42.64;100545.97;5074649;28;20055;-59
2022/05/20 09:36:55;;;;;;;18.25;15.80;;;;;;;28.65;42.29;100542.16;5075067;28;20366;-59
2022/05/20 09:39:30;;;;;;;19.08;16.70;;;;;;;28.60;42.94;100545.53;5074616;28;20052;-59
2022/05/20 09:42:04;;;;;;;17.00;15.15;;;;;;;28.62;43.66;100533.63;5074577;28;20059;-59
2022/05/20 09:44:40;;;;;;;17.48;15.68;;;;;;;28.48;42.76;100535.47;5074869;28;20091;-60
2022/05/20 09:47:13;;;;;;;23.33;17.05;;;;;;;28.78;42.90;100530.06;5074627;28;20487;-59
2022/05/20 09:49:45;;;;;;;18.45;16.33;;;;;;;29.05;41.93;100527.88;5074756;28;20048;-59
2022/05/20 09:52:23;;;;;;;18.65;16.65;;;;;;;28.97;41.99;100526.41;5074322;28;20408;-59
2022/05/20 09:54:59;;;;;;;19.75;15.75;;;;;;;29.27;42.26;100530.31;5074491;28;20049;-59
2022/05/20 09:57:31;;;;;;;18.10;15.45;;;;;;;29.11;42.03;100533.94;5074555;28;20056;-59
2022/05/20 10:00:05;;;;;;;20.98;17.05;;;;;;;28.96;42.52;100533.41;5074052;28;20055;-59
2022/05/20 10:02:36;;;;;;;20.58;17.85;;;;;;;28.99;42.80;100532.50;5074113;28;20048;-58
2022/05/20 10:05:15;;;;;;;19.52;16.73;;;;;;;28.81;42.88;100520.56;5074250;28;20409;-59
2022/05/20 10:07:58;;;;;;;18.70;16.45;;;;;;;28.86;43.13;100511.47;5074587;28;20056;-60
2022/05/20 10:10:36;;;;;;;17.77;15.88;;;;;;;28.99;42.38;100509.56;5073903;28;20072;-58
2022/05/20 10:13:08;;;;;;;21.77;18.70;;;;;;;29.11;42.32;100506.06;5074212;28;20048;-59
2022/05/20 10:15:40;;;;;;;19.77;17.65;;;;;;;29.28;42.54;100491.78;5074046;28;20056;-60
2022/05/20 10:18:23;;;;;;;20.45;18.35;;;;;;;30.34;41.20;100486.81;5074661;28;20471;-58
2022/05/20 10:20:58;;;;;;;17.80;15.90;;;;;;;32.64;37.32;100474.00;5073720;28;20464;-58
2022/05/20 10:23:33;;;;;;;17.85;16.15;;;;;;;34.41;34.16;100457.06;5073802;28;20437;-60
2022/05/20 10:26:07;;;;;;;16.77;15.07;;;;;;;36.22;32.06;100445.97;5073826;28;20377;-60
2022/05/20 10:34:25;;;;;;;18.10;16.40;;;;;;;37.61;28.65;100439.66;5079876;28;20041;-60
2022/05/20 10:36:59;;;;;;;18.65;16.85;;;;;;;36.97;28.73;100430.31;5073337;28;20055;-60
2022/05/20 10:39:53;;;;;;;17.00;15.38;;;;;;;37.69;27.76;100431.31;5073496;28;20049;-57
2022/05/20 10:42:37;;;;;;;17.95;16.15;;;;;;;37.63;27.67;100421.69;5073635;28;20473;-58
2022/05/20 10:48:40;;;;;;;19.33;17.58;;;;;;;38.03;27.65;100397.69;5075744;28;20421;-57
2022/05/20 10:51:25;;;;;;;16.05;14.52;;;;;;;38.66;27.30;100388.44;5073003;28;20052;-58
2022/05/20 10:54:07;;;;;;;16.48;14.90;;;;;;;40.13;25.30;100383.72;5073260;28;20048;-57
2022/05/20 10:56:54;;;;;;;16.95;15.25;;;;;;;40.37;24.41;100383.31;5072628;28;20484;-58
2022/05/20 10:59:51;;;;;;;16.88;15.30;;;;;;;40.77;23.80;100361.66;5073188;28;20501;-57
2022/05/20 11:02:42;;;;;;;15.27;13.82;;;;;;;41.21;23.92;100352.66;5072214;28;20492;-58
2022/05/20 11:05:28;;;;;;;15.15;13.75;;;;;;;42.24;22.96;100340.94;5072458;28;20386;-58
2022/05/20 11:08:09;;;;;;;16.65;15.05;;;;;;;42.65;22.32;100324.72;5073099;28;20063;-57
2022/05/20 11:10:52;;;;;;;15.10;13.80;;;;;;;43.31;21.83;100313.78;5072712;28;20067;-58
2022/05/20 11:13:36;;;;;;;14.52;13.02;;;;;;;43.51;21.94;100309.59;5073398;28;20496;-61
2022/05/20 11:16:17;;;;;;;17.00;15.40;;;;;;;43.72;21.31;100303.22;5072444;28;20049;-58
2022/05/20 11:19:05;;;;;;;15.45;14.00;;;;;;;43.16;21.78;100281.16;5073475;28;20389;-58
2022/05/20 11:22:05;;;;;;;14.73;13.38;;;;;;;43.01;22.34;100277.81;5072833;28;20049;-58
2022/05/20 11:25:09;;;;;;;16.23;14.57;;;;;;;42.02;23.34;100267.88;5072581;28;20048;-58
2022/05/20 11:28:00;;;;;;;17.60;16.00;;;;;;;42.06;23.20;100259.63;5072967;28;20378;-58
2022/05/20 11:30:43;;;;;;;16.15;14.63;;;;;;;41.64;23.46;100249.97;5072516;28;20048;-58
2022/05/20 11:33:26;;;;;;;16.77;15.07;;;;;;;41.64;23.57;100247.03;5072505;28;20052;-58
2022/05/20 11:36:33;;;;;;;16.83;15.20;;;;;;;42.32;23.81;100238.69;5072154;28;20052;-58
2022/05/20 11:39:16;;;;;;;15.27;13.80;;;;;;;43.25;22.06;100233.88;5072237;28;20060;-58
2022/05/20 11:41:51;;;;;;;15.85;14.25;;;;;;;43.49;21.17;100226.41;5072378;28;20052;-58
2022/05/20 11:44:35;;;;;;;15.15;13.75;;;;;;;43.88;21.41;100228.03;5072222;28;20053;-60
2022/05/20 11:47:31;;;;;;;14.98;13.52;;;;;;;42.43;22.71;100223.19;5072128;28;20059;-59
2022/05/20 11:50:16;;;;;;;17.38;15.63;;;;;;;41.63;23.46;100222.84;5072329;28;20408;-59
2022/05/20 11:52:52;;;;;;;16.70;15.02;;;;;;;40.60;24.35;100214.03;5072633;28;20049;-59
2022/05/20 11:55:22;;;;;;;16.38;14.77;;;;;;;40.44;24.84;100206.84;5072228;28;20056;-59
2022/05/20 11:57:54;;;;;;;16.88;15.38;;;;;;;39.90;26.05;100191.13;5072262;28;20055;-61
2022/05/20 12:00:23;;;;;;;15.18;13.80;;;;;;;39.34;27.37;100187.97;5072430;28;20052;-59